Thursday, September 20, 2018, 9:05 AM EDT
Back to Local

KDXR, Danbury Municipal Airport

Location: Danbury, CT, United States Lat: 41.367
Local Time: 9:05 AM EDT (13:05 GMT) Lon: -73.483
Time Zone: US/Eastern Elev: 459 ft

Show me the last for .
Show Coded

Time T Td Feel RH Dir Speed Gust Alt SLP Vis Weather Sky Remarks
2018-09-20 08:53 62 55 - 77 70° 6 - 30.23 30.22 10 OVC032 None
2018-09-20 08:00 60 55 - 83 80° 5 - 30.22 - 10 OVC031 None
2018-09-20 07:53 60 55 - 83 110° 3 - 30.22 30.21 10 OVC029 6-hr Min Temp (8am): 60.1°F
6-hr Max Temp (8am): 63.0°F
2018-09-20 06:53 60 55 - 83 80° 5 - 30.19 30.17 10 OVC029 None
2018-09-20 05:53 61 56 - 83 90° 8 - 30.16 30.15 10 SCT019 OVC024 None
2018-09-20 04:53 61 57 - 86 60° 6 - 30.14 30.13 10 OVC020 None
2018-09-20 03:53 62 58 - 86 100° 7 - 30.13 30.12 10 FEW015 OVC025 None
2018-09-20 02:53 62 58 - 86 70° 5 - 30.12 30.11 10 OVC017 None
2018-09-20 01:53 63 59 - 86 Variable 3 - 30.12 30.11 10 OVC020 6-hr Min Temp (2am): 63.0°F
6-hr Max Temp (2am): 66.9°F
2018-09-20 01:23 63 60 - 90 80° 5 - 30.11 - 10 OVC017 None
2018-09-20 00:53 63 60 - 90 80° 6 - 30.11 30.10 10 OVC012 24-hr Min Temp (1am): 60.1°F
24-hr Max Temp (1am): 79.0°F
2018-09-19 23:53 64 61 - 89 100° 7 - 30.10 30.09 10 OVC014 None
2018-09-19 22:53 66 63 - 89 130° 7 - 30.09 30.07 10 OVC014 None
2018-09-19 21:53 66 64 - 93 - Calm - 30.08 30.07 10 BKN012 None
2018-09-19 21:48 66 64 - 93 - Calm - 30.07 - 10 BKN012 None
2018-09-19 20:53 66 64 - 93 120° 5 - 30.04 30.03 10 CLR None
2018-09-19 19:53 65 62 - 90 - Calm - 30.01 30.00 10 CLR 6-hr Min Temp (8pm): 64.9°F
6-hr Max Temp (8pm): 79.0°F
2018-09-19 18:53 72 60 76 66 350° 5 - 29.99 29.98 10 CLR None
2018-09-19 17:53 75 61 78 61 360° 9 - 29.98 29.97 10 CLR None
2018-09-19 16:53 77 60 79 55 10° 10 - 29.96 29.95 10 CLR None
2018-09-19 15:53 78 62 80 57 30° 7 - 29.93 29.92 10 SCT046 SCT055 None
2018-09-19 14:53 78 60 80 54 30° 9 - 29.93 29.92 10 CLR None
2018-09-19 13:53 77 62 79 60 340° 7 - 29.94 29.93 10 FEW040 SCT049 BKN055 6-hr Min Temp (2pm): 66.0°F
6-hr Max Temp (2pm): 79.0°F
2018-09-19 12:53 77 63 79 61 340° 9 - 29.94 29.93 10 FEW038 None
2018-09-19 11:53 77 63 79 61 20° 12 - 29.93 29.92 10 BKN036 None
2018-09-19 10:53 76 65 79 68 50° 7 - 29.93 29.92 10 FEW042 None
2018-09-19 09:53 72 66 76 83 60° 7 - 29.93 - 10 FEW021 None

Support USWX by starting your Amazon purchase here.